Time;durP1;ratioP1;P1;durP2;ratioP2;P2;SDS_P1;SDS_P2;PMS_P1;PMS_P2;Temp;Humidity;BMP_temperature;BMP_pressure;BME280_temperature;BME280_humidity;BME280_pressure;Samples;Min_cycle;Max_cycle;Signal;HPM_P1;HPM_P2
2021/10/01 00:02:25;;;;;;;3.17;1.90;;;8.90;80.10;;;;;;5113036;28;20229;-64
2021/10/01 00:04:52;;;;;;;2.38;1.60;;;9.00;79.70;;;;;;5113190;28;20261;-63
2021/10/01 00:07:19;;;;;;;4.38;2.10;;;9.00;79.50;;;;;;5113488;28;20266;-64
2021/10/01 00:09:46;;;;;;;6.95;1.80;;;9.10;79.20;;;;;;5113303;28;20203;-65
2021/10/01 00:12:13;;;;;;;3.92;2.72;;;9.10;79.10;;;;;;5113444;28;20260;-65
2021/10/01 00:14:45;;;;;;;4.90;2.20;;;9.10;79.10;;;;;;5113335;28;20220;-63
2021/10/01 00:17:12;;;;;;;3.35;2.30;;;9.10;78.40;;;;;;5113028;28;20222;-64
2021/10/01 00:19:40;;;;;;;10.10;2.60;;;9.10;78.60;;;;;;5113436;28;20188;-63
2021/10/01 00:22:07;;;;;;;3.78;2.10;;;9.10;78.50;;;;;;5113279;28;20274;-63
2021/10/01 00:24:36;;;;;;;6.45;2.30;;;9.00;76.90;;;;;;5113182;28;20204;-64
2021/10/01 00:27:08;;;;;;;4.20;2.13;;;8.90;77.10;;;;;;5113169;28;20288;-63
2021/10/01 00:29:35;;;;;;;7.80;2.15;;;8.80;77.60;;;;;;5112983;28;20276;-64
2021/10/01 00:32:03;;;;;;;5.72;2.33;;;8.70;78.30;;;;;;5113090;28;20219;-63
2021/10/01 00:34:29;;;;;;;3.70;2.10;;;8.80;78.10;;;;;;5112955;28;20188;-64
2021/10/01 00:36:58;;;;;;;2.20;1.40;;;8.80;77.80;;;;;;5113311;28;20191;-64
2021/10/01 00:39:25;;;;;;;3.25;2.15;;;8.80;77.50;;;;;;5113166;28;20276;-64
2021/10/01 00:41:52;;;;;;;2.85;1.90;;;8.80;77.00;;;;;;5113139;28;20184;-64
2021/10/01 00:44:19;;;;;;;2.80;1.60;;;8.70;77.50;;;;;;5113065;28;20658;-64
2021/10/01 00:46:46;;;;;;;2.50;1.45;;;8.70;77.30;;;;;;5112676;28;20180;-64
2021/10/01 00:49:13;;;;;;;2.80;1.58;;;8.60;77.40;;;;;;5112926;28;20271;-64
2021/10/01 00:51:40;;;;;;;3.35;1.60;;;8.50;77.50;;;;;;5112949;28;20275;-64
2021/10/01 00:54:10;;;;;;;2.88;1.55;;;8.40;77.90;;;;;;5112819;28;20622;-64
2021/10/01 00:56:37;;;;;;;2.65;1.77;;;8.40;78.30;;;;;;5113133;28;20198;-64
2021/10/01 00:59:04;;;;;;;5.10;1.77;;;8.40;78.60;;;;;;5113102;28;20589;-65
2021/10/01 01:01:36;;;;;;;3.53;2.53;;;8.50;78.50;;;;;;5112864;28;20775;-64
2021/10/01 01:04:07;;;;;;;3.72;2.05;;;8.50;78.10;;;;;;5112833;28;20279;-64
2021/10/01 01:06:41;;;;;;;2.75;1.60;;;8.40;77.60;;;;;;5112861;28;20525;-64
2021/10/01 01:09:24;;;;;;;2.60;1.67;;;8.40;77.90;;;;;;5112869;28;20215;-64
2021/10/01 01:12:05;;;;;;;4.03;1.80;;;8.30;78.20;;;;;;5112724;28;20271;-65
2021/10/01 01:14:37;;;;;;;4.05;1.60;;;8.30;78.90;;;;;;5112780;28;20237;-65
2021/10/01 01:17:07;;;;;;;4.40;1.92;;;8.30;79.20;;;;;;5112807;28;20259;-64
2021/10/01 01:19:54;;;;;;;7.97;1.90;;;8.30;79.60;;;;;;5112713;28;20195;-64
2021/10/01 01:22:30;;;;;;;3.08;2.13;;;8.30;79.80;;;;;;5112853;28;20227;-64
2021/10/01 01:25:40;;;;;;;3.00;2.10;;;8.30;80.00;;;;;;5112556;28;20299;-65
2021/10/01 01:28:11;;;;;;;4.85;2.50;;;8.30;80.10;;;;;;5102907;28;20231;-64
2021/10/01 01:30:41;;;;;;;3.60;1.85;;;8.30;80.40;;;;;;5112773;28;20289;-64
2021/10/01 01:33:15;;;;;;;3.00;1.90;;;8.30;80.70;;;;;;5112529;28;20276;-64
2021/10/01 01:35:47;;;;;;;6.03;2.03;;;8.30;80.70;;;;;;5112594;28;20245;-65
2021/10/01 01:38:17;;;;;;;3.60;2.13;;;8.40;81.00;;;;;;5112667;28;20194;-64
2021/10/01 01:40:49;;;;;;;3.85;1.98;;;8.40;80.80;;;;;;5114494;28;20283;-65
2021/10/01 01:43:24;;;;;;;6.03;1.95;;;8.40;80.60;;;;;;5116141;28;20279;-65
2021/10/01 01:45:51;;;;;;;3.75;2.15;;;8.40;80.20;;;;;;5115587;28;20204;-65
2021/10/01 01:48:20;;;;;;;3.47;2.20;;;8.30;79.90;;;;;;5115997;28;20271;-65
2021/10/01 01:50:49;;;;;;;3.35;1.92;;;8.30;80.10;;;;;;5116080;28;20269;-64
2021/10/01 01:53:18;;;;;;;4.43;2.08;;;8.20;80.50;;;;;;5116039;28;20272;-65
2021/10/01 01:55:46;;;;;;;3.10;2.00;;;8.20;80.80;;;;;;5115536;28;20706;-65
2021/10/01 01:58:16;;;;;;;2.75;1.65;;;8.30;80.60;;;;;;5115939;28;20271;-66
2021/10/01 02:00:44;;;;;;;5.72;2.20;;;8.30;80.40;;;;;;5115807;28;20267;-64
2021/10/01 02:03:11;;;;;;;3.28;2.20;;;8.30;80.00;;;;;;5115910;28;20276;-63
2021/10/01 02:05:41;;;;;;;2.30;1.60;;;8.30;79.60;;;;;;5115822;28;20729;-64
2021/10/01 02:08:09;;;;;;;2.45;1.70;;;8.30;79.00;;;;;;5115816;28;20195;-64
2021/10/01 02:10:37;;;;;;;3.90;1.80;;;8.30;78.40;;;;;;5115536;28;20212;-65
2021/10/01 02:13:07;;;;;;;3.55;1.98;;;8.20;77.50;;;;;;5115715;28;20184;-64
2021/10/01 02:15:35;;;;;;;3.67;2.38;;;8.10;77.80;;;;;;5115429;28;20309;-64
2021/10/01 02:18:05;;;;;;;4.32;1.80;;;8.10;77.90;;;;;;5115512;28;20295;-64
2021/10/01 02:20:35;;;;;;;2.60;1.65;;;8.10;78.40;;;;;;5115387;28;20274;-64
2021/10/01 02:23:04;;;;;;;2.65;1.73;;;8.00;78.80;;;;;;5115418;28;20595;-64
2021/10/01 02:28:27;;;;;;;5.30;2.20;;;7.90;80.30;;;;;;5115653;28;20183;-65
2021/10/01 02:30:55;;;;;;;2.78;1.73;;;7.90;80.80;;;;;;5115066;28;20223;-64
2021/10/01 02:33:30;;;;;;;5.35;2.35;;;7.80;80.50;;;;;;5115126;28;20195;-64
2021/10/01 02:35:57;;;;;;;3.60;1.90;;;7.70;80.00;;;;;;5114888;28;20645;-65
2021/10/01 02:38:26;;;;;;;2.75;1.40;;;7.70;80.20;;;;;;5115205;28;20223;-65
2021/10/01 02:40:53;;;;;;;4.82;1.58;;;7.70;80.50;;;;;;5114904;28;20199;-65
2021/10/01 02:43:21;;;;;;;3.28;2.72;;;7.60;80.10;;;;;;5115229;28;20279;-65
2021/10/01 02:45:48;;;;;;;3.42;1.58;;;7.50;80.90;;;;;;5114452;28;20208;-64
2021/10/01 02:48:20;;;;;;;2.72;1.73;;;7.50;80.90;;;;;;5114980;28;20219;-65
2021/10/01 02:50:52;;;;;;;3.25;1.55;;;7.50;81.20;;;;;;5114878;28;20188;-64
2021/10/01 02:53:24;;;;;;;3.85;1.80;;;7.50;81.50;;;;;;5114782;28;20219;-66
2021/10/01 02:55:58;;;;;;;6.22;2.30;;;7.50;81.40;;;;;;5114572;28;20260;-64
2021/10/01 02:58:29;;;;;;;3.10;2.30;;;7.60;81.60;;;;;;5114225;28;20698;-65
2021/10/01 03:00:58;;;;;;;2.10;1.55;;;7.60;80.80;;;;;;5114635;28;20185;-65
2021/10/01 03:03:28;;;;;;;2.97;1.85;;;7.50;80.90;;;;;;5114683;28;20191;-65
2021/10/01 03:05:58;;;;;;;3.47;1.45;;;7.50;81.30;;;;;;5114281;28;20215;-64
2021/10/01 03:08:29;;;;;;;3.13;2.33;;;7.60;81.30;;;;;;5114146;28;20279;-63
2021/10/01 03:10:59;;;;;;;2.70;1.85;;;7.60;81.30;;;;;;5113905;28;20694;-64
2021/10/01 03:13:27;;;;;;;2.72;1.90;;;7.70;81.80;;;;;;5114453;28;20271;-65
2021/10/01 03:15:57;;;;;;;3.08;1.73;;;7.70;81.80;;;;;;5113917;28;20243;-65
2021/10/01 03:18:27;;;;;;;2.20;1.50;;;7.80;81.90;;;;;;5114468;28;20275;-64
2021/10/01 03:20:55;;;;;;;2.50;1.58;;;7.80;81.90;;;;;;5114291;28;20191;-64
2021/10/01 03:23:23;;;;;;;3.20;2.00;;;7.80;80.90;;;;;;5114235;28;20690;-64
2021/10/01 03:25:51;;;;;;;3.55;2.50;;;7.70;79.60;;;;;;5113936;28;20211;-64
2021/10/01 03:28:20;;;;;;;2.75;1.50;;;7.70;79.80;;;;;;5114160;28;20291;-64
2021/10/01 03:30:48;;;;;;;3.10;1.65;;;7.60;79.80;;;;;;5113855;28;20241;-63
2021/10/01 03:33:15;;;;;;;3.42;2.75;;;7.50;79.80;;;;;;5114015;28;20280;-65
2021/10/01 03:35:43;;;;;;;2.72;1.85;;;7.50;79.70;;;;;;5113959;28;20271;-63
2021/10/01 03:38:11;;;;;;;2.47;1.90;;;7.40;79.90;;;;;;5114073;28;20210;-63
2021/10/01 03:40:37;;;;;;;3.15;2.00;;;7.50;80.20;;;;;;5114042;28;20188;-65
2021/10/01 03:43:04;;;;;;;2.40;1.90;;;7.40;80.70;;;;;;5113840;28;20280;-64
2021/10/01 03:45:33;;;;;;;5.35;2.47;;;7.40;81.20;;;;;;5113857;28;20220;-65
2021/10/01 03:48:03;;;;;;;5.70;2.95;;;7.50;81.70;;;;;;5113868;28;20181;-66
2021/10/01 03:50:30;;;;;;;5.50;2.08;;;7.50;81.60;;;;;;5114184;28;20230;-65
2021/10/01 03:52:57;;;;;;;2.92;2.05;;;7.50;81.60;;;;;;5113753;28;20275;-65
2021/10/01 03:55:24;;;;;;;7.00;2.38;;;7.50;81.00;;;;;;5113681;28;20271;-65
2021/10/01 03:57:51;;;;;;;3.17;1.92;;;7.50;80.10;;;;;;5113837;28;20181;-64
2021/10/01 04:00:19;;;;;;;6.38;1.85;;;7.50;80.00;;;;;;5113574;28;20271;-63
2021/10/01 04:02:48;;;;;;;5.88;2.40;;;7.50;80.00;;;;;;5113471;28;20227;-64
2021/10/01 04:05:16;;;;;;;3.25;2.00;;;7.60;80.30;;;;;;5113650;28;20212;-65
2021/10/01 04:07:43;;;;;;;4.97;2.42;;;7.50;80.30;;;;;;5114004;28;20233;-65
2021/10/01 04:10:11;;;;;;;2.22;1.65;;;7.50;79.40;;;;;;5113749;28;20188;-65
2021/10/01 04:12:39;;;;;;;2.50;1.90;;;7.40;78.60;;;;;;5113828;28;20190;-64
2021/10/01 04:15:07;;;;;;;2.20;1.70;;;7.30;79.10;;;;;;5113671;28;20280;-65
2021/10/01 04:17:34;;;;;;;3.72;1.77;;;7.30;79.50;;;;;;5113689;28;20182;-65
2021/10/01 04:20:03;;;;;;;4.00;1.80;;;7.20;80.20;;;;;;5113550;28;20665;-65
2021/10/01 04:22:30;;;;;;;2.40;1.55;;;7.20;79.70;;;;;;5113847;28;20568;-64
2021/10/01 04:24:57;;;;;;;3.97;1.63;;;7.30;79.90;;;;;;5113334;28;20275;-64
2021/10/01 04:27:24;;;;;;;4.15;1.80;;;7.20;79.60;;;;;;5113243;28;20246;-64
2021/10/01 04:29:51;;;;;;;2.97;1.88;;;7.20;80.20;;;;;;5113480;28;20283;-64
2021/10/01 04:32:18;;;;;;;2.63;1.60;;;7.20;80.00;;;;;;5113563;28;20586;-64
2021/10/01 04:34:59;;;;;;;3.35;1.92;;;7.20;79.60;;;;;;5113369;28;20223;-64
2021/10/01 04:37:28;;;;;;;2.83;1.83;;;7.20;79.60;;;;;;5113451;28;20275;-64
2021/10/01 04:39:57;;;;;;;5.47;2.22;;;7.20;79.20;;;;;;5113494;28;20184;-64
2021/10/01 04:42:24;;;;;;;3.90;1.65;;;7.20;79.30;;;;;;5113419;28;20233;-63
2021/10/01 04:44:56;;;;;;;2.70;2.00;;;7.20;79.40;;;;;;5113175;28;20199;-63
2021/10/01 04:47:23;;;;;;;3.65;1.27;;;7.20;79.50;;;;;;5113010;28;20646;-65
2021/10/01 04:49:50;;;;;;;3.70;1.75;;;7.20;79.60;;;;;;5113317;28;20574;-65
2021/10/01 04:52:17;;;;;;;4.25;1.80;;;7.20;78.90;;;;;;5113133;28;20220;-65
2021/10/01 04:54:45;;;;;;;2.63;1.50;;;7.10;79.30;;;;;;5113355;28;20276;-64
2021/10/01 04:57:12;;;;;;;5.82;1.50;;;7.10;79.40;;;;;;5113411;28;20185;-65
2021/10/01 04:59:39;;;;;;;3.65;1.60;;;7.10;79.30;;;;;;5113436;28;20189;-65
2021/10/01 05:02:06;;;;;;;2.55;1.40;;;7.10;79.20;;;;;;5112968;28;20195;-63
2021/10/01 05:04:36;;;;;;;2.58;1.42;;;7.10;79.20;;;;;;5113261;28;20275;-63
2021/10/01 05:07:03;;;;;;;2.40;1.60;;;7.10;79.00;;;;;;5110529;28;20327;-64
2021/10/01 05:09:30;;;;;;;4.13;1.52;;;7.00;79.40;;;;;;5094510;28;20201;-63
2021/10/01 05:11:59;;;;;;;2.65;1.95;;;7.00;79.70;;;;;;5108728;28;20238;-65
2021/10/01 05:14:26;;;;;;;2.88;1.80;;;6.90;80.30;;;;;;5109128;28;20206;-63
2021/10/01 05:16:54;;;;;;;2.92;2.10;;;6.90;81.10;;;;;;5113209;28;20220;-65
2021/10/01 05:19:21;;;;;;;2.50;1.65;;;6.90;80.80;;;;;;5114076;28;20234;-65
2021/10/01 05:21:48;;;;;;;2.70;1.52;;;6.90;80.70;;;;;;5113942;28;20184;-65
2021/10/01 05:24:16;;;;;;;4.88;2.30;;;7.00;80.90;;;;;;5099784;28;20188;-64
2021/10/01 05:26:43;;;;;;;5.28;2.35;;;7.00;80.60;;;;;;5107207;28;20208;-64
2021/10/01 05:29:12;;;;;;;6.97;2.28;;;7.00;80.70;;;;;;5113863;28;20188;-64
2021/10/01 05:31:39;;;;;;;3.10;2.45;;;7.00;79.80;;;;;;5113765;28;20192;-66
2021/10/01 05:34:08;;;;;;;4.90;2.55;;;7.00;79.80;;;;;;5095334;28;20188;-64
2021/10/01 05:36:36;;;;;;;5.55;3.15;;;7.00;80.10;;;;;;5095361;28;20199;-64
2021/10/01 05:39:08;;;;;;;6.15;3.72;;;7.00;80.30;;;;;;5095458;28;20236;-63
2021/10/01 05:41:38;;;;;;;11.02;4.53;;;7.10;80.50;;;;;;5095503;28;20631;-64
2021/10/01 05:44:05;;;;;;;5.97;3.78;;;7.10;81.10;;;;;;5095411;28;20314;-64
2021/10/01 05:46:42;;;;;;;6.45;3.40;;;7.20;81.30;;;;;;5103564;28;20252;-63
2021/10/01 05:49:13;;;;;;;11.23;3.78;;;7.20;81.20;;;;;;5094983;28;20288;-63
2021/10/01 05:51:47;;;;;;;4.97;3.92;;;7.20;81.70;;;;;;5095505;28;20189;-65
2021/10/01 05:54:21;;;;;;;6.35;4.18;;;7.30;82.90;;;;;;5108697;28;20183;-64
2021/10/01 05:56:49;;;;;;;5.68;3.20;;;7.30;81.80;;;;;;5108366;27;20181;-64
2021/10/01 05:59:17;;;;;;;5.20;4.00;;;7.40;82.70;;;;;;5112481;28;20180;-71
2021/10/01 06:01:46;;;;;;;8.18;3.50;;;7.60;83.00;;;;;;5108848;28;20253;-64
2021/10/01 06:04:16;;;;;;;4.70;3.17;;;7.70;83.60;;;;;;5109081;28;20220;-66
2021/10/01 06:06:43;;;;;;;4.47;2.20;;;7.80;83.50;;;;;;5112556;28;20208;-63
2021/10/01 06:09:11;;;;;;;4.00;2.90;;;7.90;83.00;;;;;;5111870;28;20665;-65
2021/10/01 06:11:40;;;;;;;6.53;3.25;;;8.00;82.40;;;;;;5112646;28;20188;-65
2021/10/01 06:14:08;;;;;;;4.43;3.25;;;8.20;82.50;;;;;;5112960;28;20184;-65
2021/10/01 06:16:36;;;;;;;3.97;2.90;;;8.30;82.80;;;;;;5111899;28;20227;-66
2021/10/01 06:19:05;;;;;;;4.22;3.05;;;8.50;83.30;;;;;;5094043;28;20833;-64
2021/10/01 06:21:32;;;;;;;3.25;2.28;;;8.60;83.90;;;;;;5110071;28;20196;-63
2021/10/01 06:23:59;;;;;;;4.32;2.90;;;8.80;84.60;;;;;;5112080;28;20222;-66
2021/10/01 06:26:26;;;;;;;5.45;3.20;;;9.10;83.50;;;;;;5110868;28;20297;-66
2021/10/01 06:28:54;;;;;;;4.68;2.60;;;9.20;81.60;;;;;;5110983;28;20195;-66
2021/10/01 06:31:22;;;;;;;6.57;3.15;;;9.40;82.10;;;;;;5098309;28;20250;-64
2021/10/01 06:33:49;;;;;;;4.78;3.65;;;9.60;82.20;;;;;;5104000;28;20181;-64
2021/10/01 06:36:20;;;;;;;3.53;2.35;;;9.80;80.50;;;;;;5114664;28;20229;-66
2021/10/01 06:38:47;;;;;;;3.90;1.75;;;10.10;78.80;;;;;;5115579;28;20188;-65
2021/10/01 06:41:14;;;;;;;10.55;1.98;;;10.40;77.00;;;;;;5115498;28;20227;-65
2021/10/01 06:43:43;;;;;;;3.05;1.65;;;10.70;76.60;;;;;;5115444;28;20288;-64
2021/10/01 06:46:17;;;;;;;5.60;1.77;;;10.80;74.70;;;;;;5114985;28;20682;-65
2021/10/01 06:48:53;;;;;;;3.30;1.65;;;11.20;75.90;;;;;;5115384;28;20637;-66
2021/10/01 06:51:34;;;;;;;2.63;1.45;;;11.70;74.90;;;;;;5115387;28;20218;-66
2021/10/01 08:19:05;;;;;;;2.37;1.30;;;36.50;21.30;;;;;;5130862;28;20416;-65
2021/10/01 08:21:33;;;;;;;2.10;1.00;;;37.50;19.40;;;;;;5130672;28;20438;-67
2021/10/01 08:24:01;;;;;;;3.67;1.60;;;38.50;19.40;;;;;;5130711;28;20429;-65
2021/10/01 08:26:30;;;;;;;2.50;1.27;;;39.30;19.00;;;;;;5130598;28;20823;-67
2021/10/01 08:28:57;;;;;;;2.43;1.10;;;40.10;18.20;;;;;;5130489;28;20520;-66
2021/10/01 08:31:28;;;;;;;2.50;1.10;;;41.10;16.30;;;;;;5130605;28;20850;-66
2021/10/01 08:33:56;;;;;;;3.90;1.30;;;42.00;16.60;;;;;;5130475;28;20435;-66
2021/10/01 08:36:23;;;;;;;2.17;1.20;;;43.00;14.90;;;;;;5130169;28;21002;-67
2021/10/01 08:38:52;;;;;;;2.80;1.27;;;43.70;14.30;;;;;;5130394;28;20804;-66
2021/10/01 08:41:21;;;;;;;2.13;1.10;;;44.50;14.00;;;;;;5130164;28;20528;-68
2021/10/01 08:43:49;;;;;;;3.40;1.10;;;45.30;14.40;;;;;;5130243;28;20426;-68
2021/10/01 08:46:18;;;;;;;2.27;1.03;;;45.90;13.00;;;;;;5130224;28;20480;-67
2021/10/01 08:48:46;;;;;;;2.97;1.57;;;46.20;12.70;;;;;;5120016;28;20513;-67
2021/10/01 08:51:14;;;;;;;8.00;2.93;;;46.00;12.70;;;;;;5116265;28;20469;-66
2021/10/01 08:53:42;;;;;;;3.77;1.33;;;46.00;13.00;;;;;;5115823;28;20434;-66
2021/10/01 08:56:11;;;;;;;2.80;1.73;;;46.30;12.90;;;;;;5115990;28;20513;-66
2021/10/01 08:58:38;;;;;;;3.00;1.23;;;46.60;11.90;;;;;;5115897;28;20470;-66
2021/10/01 09:01:06;;;;;;;4.07;1.33;;;46.30;11.80;;;;;;5116198;28;20513;-66
2021/10/01 09:03:33;;;;;;;2.10;1.10;;;45.90;12.50;;;;;;5116186;28;20538;-66
2021/10/01 09:06:00;;;;;;;2.93;1.03;;;45.80;12.20;;;;;;5116032;28;20464;-66
2021/10/01 09:08:29;;;;;;;2.93;1.23;;;45.90;12.20;;;;;;5115926;28;20437;-66
2021/10/01 09:11:01;;;;;;;3.20;1.53;;;46.10;12.20;;;;;;5115638;28;20466;-66
2021/10/01 09:13:30;;;;;;;4.73;1.50;;;46.10;12.70;;;;;;5115940;28;20485;-66
2021/10/01 09:16:03;;;;;;;3.03;1.20;;;46.60;12.10;;;;;;5115395;28;20436;-66
2021/10/01 09:18:34;;;;;;;3.63;1.20;;;47.10;12.00;;;;;;5115847;28;20600;-66
2021/10/01 09:21:09;;;;;;;3.20;1.50;;;47.30;11.90;;;;;;5115752;28;20874;-66
2021/10/01 09:23:42;;;;;;;5.00;1.53;;;47.80;11.90;;;;;;5115678;28;20920;-66
2021/10/01 09:26:17;;;;;;;3.80;1.30;;;48.20;11.10;;;;;;5115466;28;20803;-66
2021/10/01 09:28:51;;;;;;;3.00;1.57;;;48.40;11.00;;;;;;5115178;28;20897;-67
2021/10/01 09:31:35;;;;;;;3.07;1.57;;;48.50;11.30;;;;;;5115636;28;20521;-67
2021/10/01 09:34:04;;;;;;;2.53;1.37;;;49.40;11.00;;;;;;5114954;28;20422;-67
2021/10/01 09:36:31;;;;;;;4.03;1.80;;;49.70;10.80;;;;;;5115385;28;20975;-66
2021/10/01 09:38:59;;;;;;;3.20;1.27;;;49.80;10.00;;;;;;5115542;28;20525;-67
2021/10/01 09:41:28;;;;;;;2.20;1.17;;;49.90;10.70;;;;;;5115292;28;20441;-64
2021/10/01 09:44:08;;;;;;;8.40;1.43;;;50.30;10.00;;;;;;5115084;28;20434;-67
2021/10/01 09:46:38;;;;;;;4.73;1.90;;;50.50;10.10;;;;;;5114887;28;20526;-66
2021/10/01 09:49:06;;;;;;;6.17;1.40;;;50.90;10.20;;;;;;5115015;28;20432;-64
2021/10/01 09:51:35;;;;;;;2.30;1.40;;;51.40;9.90;;;;;;5115198;28;20438;-66
2021/10/01 09:54:11;;;;;;;2.30;1.00;;;52.00;9.80;;;;;;5115019;28;20438;-65
2021/10/01 09:56:38;;;;;;;7.30;1.40;;;52.50;9.70;;;;;;5115012;28;20538;-65
2021/10/01 09:59:14;;;;;;;4.27;1.37;;;53.00;9.00;;;;;;5114523;28;20537;-65
2021/10/01 10:02:03;;;;;;;3.40;1.77;;;53.10;9.10;;;;;;5114758;28;20465;-65
2021/10/01 10:04:31;;;;;;;3.13;1.13;;;53.30;9.20;;;;;;5114901;28;20781;-65
2021/10/01 10:06:59;;;;;;;2.07;1.00;;;53.40;9.30;;;;;;5114656;28;20821;-66
2021/10/01 10:09:33;;;;;;;3.77;1.23;;;53.80;9.10;;;;;;5114692;28;20509;-65
2021/10/01 10:12:01;;;;;;;3.47;1.23;;;54.20;8.80;;;;;;5114563;28;20488;-65
2021/10/01 10:14:34;;;;;;;4.57;1.10;;;54.10;8.20;;;;;;5114158;28;20524;-65
2021/10/01 10:17:01;;;;;;;3.67;1.10;;;54.00;7.80;;;;;;5114709;28;20484;-65
2021/10/01 10:19:31;;;;;;;4.40;1.00;;;54.00;8.40;;;;;;5114651;28;20774;-66
2021/10/01 10:22:01;;;;;;;7.53;1.43;;;54.10;8.10;;;;;;5114706;28;20434;-66
2021/10/01 10:24:28;;;;;;;2.47;1.37;;;54.30;8.10;;;;;;5114209;28;20924;-65
2021/10/01 10:26:57;;;;;;;5.80;1.27;;;54.90;8.00;;;;;;5114216;28;20564;-66
2021/10/01 10:29:25;;;;;;;4.27;1.57;;;55.10;7.60;;;;;;5114375;28;20439;-66
2021/10/01 10:31:55;;;;;;;2.83;1.20;;;54.70;7.60;;;;;;5114329;28;20434;-65
2021/10/01 10:34:24;;;;;;;3.13;1.20;;;54.50;7.40;;;;;;5114199;28;20461;-65
2021/10/01 10:37:07;;;;;;;3.53;1.83;;;54.40;7.70;;;;;;5114097;28;20439;-66
2021/10/01 10:39:49;;;;;;;2.73;1.33;;;54.20;7.90;;;;;;5114118;28;20437;-66
2021/10/01 10:42:22;;;;;;;3.33;1.17;;;54.70;8.60;;;;;;5114260;28;20513;-66
2021/10/01 10:44:53;;;;;;;3.60;1.37;;;55.10;8.40;;;;;;5114552;28;20822;-66
2021/10/01 10:47:42;;;;;;;3.20;1.40;;;55.20;8.10;;;;;;5113760;28;20485;-66
2021/10/01 10:50:29;;;;;;;2.80;1.50;;;55.40;8.40;;;;;;5114252;28;20517;-65
2021/10/01 10:53:26;;;;;;;2.33;1.17;;;55.70;8.40;;;;;;5113966;28;20996;-65
2021/10/01 10:55:56;;;;;;;2.53;1.20;;;56.10;7.40;;;;;;5113821;28;20443;-66
2021/10/01 10:58:55;;;;;;;5.20;1.40;;;56.10;7.50;;;;;;5113701;28;20517;-66
2021/10/01 11:01:39;;;;;;;1.60;0.80;;;56.10;7.30;;;;;;5113940;28;20441;-66
2021/10/01 11:04:27;;;;;;;1.77;1.10;;;56.60;7.20;;;;;;5113787;28;20480;-65
2021/10/01 11:06:55;;;;;;;2.83;1.50;;;56.50;7.10;;;;;;5113453;28;20469;-65
2021/10/01 11:09:29;;;;;;;2.83;1.27;;;56.30;6.90;;;;;;5113639;28;20928;-66
2021/10/01 11:11:58;;;;;;;2.40;1.10;;;56.10;7.00;;;;;;5113159;28;20469;-66
2021/10/01 11:14:28;;;;;;;2.57;1.00;;;56.00;7.00;;;;;;5113765;28;20466;-65
2021/10/01 11:17:17;;;;;;;5.20;1.10;;;56.10;7.20;;;;;;5113306;28;20450;-65
2021/10/01 11:19:52;;;;;;;2.13;1.10;;;56.10;7.10;;;;;;5113729;28;20438;-66
2021/10/01 11:22:34;;;;;;;1.80;0.90;;;55.90;7.00;;;;;;5113782;28;20469;-66
2021/10/01 11:25:06;;;;;;;1.60;0.80;;;56.10;6.80;;;;;;5113478;28;20865;-66
2021/10/01 11:27:33;;;;;;;2.60;1.10;;;56.10;6.00;;;;;;5113316;28;20565;-65
2021/10/01 11:30:00;;;;;;;3.07;1.10;;;55.80;6.50;;;;;;5113543;28;20473;-66
2021/10/01 11:32:31;;;;;;;3.20;0.80;;;55.50;6.80;;;;;;5095191;28;20435;-66
2021/10/01 11:35:01;;;;;;;2.63;1.27;;;55.40;7.10;;;;;;5113348;28;20437;-65
2021/10/01 11:37:33;;;;;;;2.77;1.30;;;55.70;7.40;;;;;;5113026;28;20997;-65
2021/10/01 11:40:07;;;;;;;3.40;1.20;;;56.10;7.60;;;;;;5113292;28;20473;-66
2021/10/01 11:42:39;;;;;;;2.67;1.47;;;56.50;7.30;;;;;;5113064;28;20515;-65
2021/10/01 11:45:14;;;;;;;6.70;1.47;;;57.00;7.10;;;;;;5113375;28;20795;-65
2021/10/01 11:48:03;;;;;;;4.07;1.40;;;57.40;6.60;;;;;;5112878;28;20569;-66
2021/10/01 11:50:35;;;;;;;4.60;1.10;;;57.50;6.60;;;;;;5113242;28;20525;-66
2021/10/01 11:53:15;;;;;;;2.50;1.10;;;57.70;6.80;;;;;;5113308;28;20791;-66
2021/10/01 11:55:50;;;;;;;3.50;0.97;;;57.70;6.70;;;;;;5112882;28;20521;-66
2021/10/01 11:58:21;;;;;;;3.30;1.10;;;57.60;6.30;;;;;;5113064;28;20462;-65
2021/10/01 12:00:48;;;;;;;3.00;2.30;;;57.40;6.40;;;;;;5113248;28;20430;-66
2021/10/01 12:03:17;;;;;;;4.00;1.10;;;57.40;6.80;;;;;;5112778;28;20789;-66
2021/10/01 12:05:49;;;;;;;3.30;1.27;;;57.20;6.10;;;;;;5113373;28;20434;-66
2021/10/01 12:08:19;;;;;;;1.87;1.00;;;57.00;6.60;;;;;;5112748;28;20564;-66
2021/10/01 12:10:49;;;;;;;2.70;1.43;;;56.90;6.40;;;;;;5112645;28;20438;-66
2021/10/01 12:13:22;;;;;;;2.20;1.00;;;56.90;6.80;;;;;;5113216;28;20442;-66
2021/10/01 12:15:54;;;;;;;2.27;0.77;;;56.80;6.60;;;;;;5112759;28;20434;-65
2021/10/01 12:18:33;;;;;;;2.23;0.90;;;55.90;6.10;;;;;;5113044;28;20564;-67
2021/10/01 12:21:04;;;;;;;2.20;0.90;;;55.60;6.40;;;;;;5112649;28;20434;-65
2021/10/01 12:23:39;;;;;;;4.30;1.83;;;55.10;6.40;;;;;;5114307;28;20529;-65
2021/10/01 12:26:18;;;;;;;2.10;0.90;;;54.80;6.50;;;;;;5116115;28;21026;-65
2021/10/01 12:29:05;;;;;;;3.03;1.00;;;54.30;6.60;;;;;;5116551;28;20477;-66
2021/10/01 12:31:37;;;;;;;2.03;1.00;;;54.20;6.60;;;;;;5116809;28;20853;-65
2021/10/01 12:34:11;;;;;;;4.77;1.50;;;54.10;6.90;;;;;;5116313;28;20520;-65
2021/10/01 12:36:39;;;;;;;2.23;0.93;;;53.60;7.00;;;;;;5116658;28;20516;-66
2021/10/01 12:39:07;;;;;;;4.17;1.00;;;52.80;6.90;;;;;;5116575;28;20476;-67
2021/10/01 12:41:34;;;;;;;3.53;1.10;;;52.00;7.20;;;;;;5116342;28;20433;-65
2021/10/01 12:44:05;;;;;;;2.00;0.80;;;51.30;7.50;;;;;;5116286;28;20495;-65
2021/10/01 12:46:41;;;;;;;4.73;1.17;;;50.70;8.00;;;;;;5115976;28;20533;-65
2021/10/01 12:49:23;;;;;;;2.10;1.23;;;50.20;8.00;;;;;;5116319;28;20564;-65
2021/10/01 12:52:09;;;;;;;4.70;1.00;;;50.00;8.40;;;;;;5116083;28;20993;-65
2021/10/01 12:54:43;;;;;;;2.00;1.10;;;49.50;7.80;;;;;;5116278;28;20495;-65
2021/10/01 12:57:22;;;;;;;2.80;1.10;;;48.40;8.10;;;;;;5116309;28;20520;-64
2021/10/01 12:59:53;;;;;;;3.03;1.30;;;47.20;9.10;;;;;;5116083;28;20525;-64
2021/10/01 13:02:22;;;;;;;2.40;0.93;;;45.90;9.70;;;;;;5115599;28;20480;-64
2021/10/01 13:04:58;;;;;;;3.27;1.27;;;44.70;10.50;;;;;;5115930;28;20444;-64
2021/10/01 13:07:29;;;;;;;2.10;1.10;;;43.00;10.70;;;;;;5115629;28;20469;-66
2021/10/01 13:09:59;;;;;;;3.20;1.13;;;41.60;11.40;;;;;;5116058;28;20434;-66
2021/10/01 13:12:45;;;;;;;2.20;1.20;;;40.30;12.70;;;;;;5115516;28;20521;-66
2021/10/01 13:15:16;;;;;;;2.13;0.90;;;38.80;12.80;;;;;;5115697;28;20440;-66
2021/10/01 13:17:58;;;;;;;3.07;0.93;;;37.30;14.20;;;;;;5115759;28;20469;-66
2021/10/01 13:20:26;;;;;;;4.97;1.10;;;35.90;15.60;;;;;;5115606;28;20438;-65
2021/10/01 13:22:57;;;;;;;1.73;0.93;;;34.60;16.70;;;;;;5115569;28;20847;-67
2021/10/01 13:25:25;;;;;;;2.00;1.23;;;33.60;18.70;;;;;;5115523;28;20441;-65
2021/10/01 13:27:53;;;;;;;2.20;1.10;;;32.60;18.40;;;;;;5115235;28;20478;-64
2021/10/01 13:30:20;;;;;;;2.20;1.40;;;31.80;20.00;;;;;;5115169;28;20524;-65
2021/10/01 13:32:47;;;;;;;3.20;1.30;;;31.10;20.60;;;;;;5115316;28;20522;-65
2021/10/01 13:35:15;;;;;;;2.27;1.10;;;30.40;21.80;;;;;;5115072;28;20444;-66
2021/10/01 13:37:43;;;;;;;1.97;1.27;;;29.80;22.60;;;;;;5115163;28;20927;-65
2021/10/01 13:40:13;;;;;;;2.93;0.97;;;29.20;23.10;;;;;;5095486;28;20426;-64
2021/10/01 13:42:41;;;;;;;2.10;1.20;;;28.70;23.70;;;;;;5093469;28;20909;-64
2021/10/01 13:45:09;;;;;;;2.00;1.10;;;28.40;23.30;;;;;;5093527;28;20534;-64
2021/10/01 13:47:37;;;;;;;3.93;1.03;;;28.20;23.50;;;;;;5092826;28;20554;-65
2021/10/01 13:50:07;;;;;;;4.50;1.60;;;28.00;24.70;;;;;;5093472;28;20497;-65
2021/10/01 13:52:35;;;;;;;9.43;2.80;;;27.80;26.10;;;;;;5094410;28;20902;-65
2021/10/01 13:55:02;;;;;;;15.70;5.27;;;27.60;27.00;;;;;;5094615;28;20629;-65
2021/10/01 13:57:30;;;;;;;8.50;2.00;;;27.40;26.80;;;;;;5092242;28;20441;-64
2021/10/01 13:59:57;;;;;;;3.00;1.43;;;27.20;28.40;;;;;;5096336;28;20439;-65
2021/10/01 14:02:24;;;;;;;19.53;8.93;;;27.00;28.10;;;;;;5093307;28;20435;-64
2021/10/01 14:04:51;;;;;;;5.87;2.20;;;26.80;28.10;;;;;;5097166;28;20480;-65
2021/10/01 14:07:18;;;;;;;5.80;2.63;;;26.60;28.00;;;;;;5095870;28;20531;-64
2021/10/01 14:09:45;;;;;;;3.70;2.63;;;26.40;28.00;;;;;;5096306;28;20522;-64
2021/10/01 14:12:14;;;;;;;7.70;1.90;;;26.20;27.90;;;;;;5095875;28;20851;-65
2021/10/01 14:14:49;;;;;;;5.80;1.33;;;26.00;28.70;;;;;;5094959;28;20438;-66
2021/10/01 14:17:16;;;;;;;2.37;1.20;;;25.80;29.60;;;;;;5092219;28;20526;-64
2021/10/01 14:19:43;;;;;;;4.03;1.33;;;25.60;30.90;;;;;;5092926;28;20953;-65
2021/10/01 14:22:10;;;;;;;5.10;1.47;;;25.40;31.20;;;;;;5097590;28;20621;-64
2021/10/01 14:24:37;;;;;;;3.23;1.47;;;25.20;32.20;;;;;;5092836;28;20530;-64
2021/10/01 14:27:05;;;;;;;5.33;1.23;;;25.10;31.90;;;;;;5095115;28;20447;-64
2021/10/01 14:29:32;;;;;;;3.43;1.50;;;24.90;31.00;;;;;;5094451;28;20442;-63
2021/10/01 14:32:00;;;;;;;2.27;1.40;;;24.70;31.30;;;;;;5092553;28;20534;-64
2021/10/01 14:34:27;;;;;;;3.20;1.40;;;24.60;32.00;;;;;;5092809;28;20530;-65
2021/10/01 14:36:54;;;;;;;2.67;1.40;;;24.40;31.50;;;;;;5092564;28;20439;-64
2021/10/01 14:39:22;;;;;;;2.57;1.47;;;24.30;32.30;;;;;;5091519;28;20475;-65
2021/10/01 14:41:49;;;;;;;6.37;2.50;;;24.10;32.80;;;;;;5096392;28;21007;-65